createdAt,value
2017-11-23T00:00:54.725Z,0
2017-11-23T00:01:55.022Z,0
2017-11-23T00:02:55.030Z,0
2017-11-23T00:03:54.762Z,0
2017-11-23T00:04:54.782Z,0
2017-11-23T00:05:54.784Z,0
2017-11-23T00:06:54.799Z,0
2017-11-23T00:07:55.088Z,0
2017-11-23T00:08:55.109Z,0
2017-11-23T00:09:54.854Z,0
2017-11-23T00:10:54.599Z,0
2017-11-23T00:11:55.178Z,0
2017-11-23T00:12:55.161Z,0
2017-11-23T00:13:54.623Z,0
2017-11-23T00:14:55.171Z,0
2017-11-23T00:15:55.183Z,0
2017-11-23T00:16:54.964Z,0
2017-11-23T00:17:54.937Z,0
2017-11-23T00:18:54.956Z,0
2017-11-23T00:19:55.248Z,0
2017-11-23T00:20:55.259Z,0
2017-11-23T00:21:55.007Z,0
2017-11-23T00:22:55.275Z,0
2017-11-23T00:23:55.012Z,0
2017-11-23T00:24:55.026Z,0
2017-11-23T00:25:55.315Z,0
2017-11-23T00:26:55.324Z,0
2017-11-23T00:27:55.105Z,0
2017-11-23T00:28:55.082Z,0
2017-11-23T00:29:55.091Z,0
2017-11-23T00:30:55.106Z,0
2017-11-23T00:31:55.385Z,0
2017-11-23T00:32:55.398Z,0
2017-11-23T00:33:55.410Z,0
2017-11-23T00:34:55.424Z,0
2017-11-23T00:35:55.457Z,0
2017-11-23T00:36:55.455Z,0
2017-11-23T00:37:55.191Z,0
2017-11-23T00:38:55.473Z,0
2017-11-23T00:39:55.489Z,0
2017-11-23T00:40:55.492Z,0
2017-11-23T00:41:54.974Z,0
2017-11-23T00:42:55.513Z,0
2017-11-23T00:43:55.263Z,0
2017-11-23T00:44:55.276Z,0
2017-11-23T00:45:55.562Z,0
2017-11-23T00:46:55.573Z,0
2017-11-23T00:47:55.320Z,0
2017-11-23T00:48:55.332Z,0
2017-11-23T00:49:55.620Z,0
2017-11-23T00:50:55.352Z,0
2017-11-23T00:51:55.641Z,0
2017-11-23T00:52:55.667Z,0
2017-11-23T00:53:55.122Z,0
2017-11-23T00:54:55.405Z,0
2017-11-23T00:55:55.685Z,0
2017-11-23T00:56:55.734Z,0
2017-11-23T00:57:55.437Z,0
2017-11-23T00:58:55.725Z,0
2017-11-23T00:59:55.740Z,0
2017-11-23T01:00:55.479Z,0
2017-11-23T01:01:55.815Z,0
2017-11-23T01:02:55.501Z,0
2017-11-23T01:03:55.522Z,0
2017-11-23T01:04:55.524Z,0
2017-11-23T01:05:55.271Z,0
2017-11-23T01:06:55.822Z,0
2017-11-23T01:07:55.577Z,0
2017-11-23T01:08:55.855Z,0
2017-11-23T01:09:55.855Z,0
2017-11-23T01:10:55.606Z,0
2017-11-23T01:11:55.612Z,0
2017-11-23T01:12:55.900Z,0
2017-11-23T01:13:55.674Z,0
2017-11-23T01:14:55.580Z,0
2017-11-23T01:15:55.933Z,0
2017-11-23T01:16:55.673Z,0
2017-11-23T01:17:55.686Z,0
2017-11-23T01:18:55.972Z,0
2017-11-23T01:19:55.993Z,0
2017-11-23T01:20:55.452Z,0
2017-11-23T01:21:56.011Z,0
2017-11-23T01:22:55.754Z,0
2017-11-23T01:23:55.762Z,0
2017-11-23T01:24:55.773Z,0
2017-11-23T01:25:56.061Z,0
2017-11-23T01:26:56.073Z,0
2017-11-23T01:27:56.081Z,0
2017-11-23T01:28:55.824Z,0
2017-11-23T01:29:55.840Z,0
2017-11-23T01:30:55.845Z,0
2017-11-23T01:31:55.859Z,0
2017-11-23T01:32:56.153Z,0
2017-11-23T01:33:56.165Z,0
2017-11-23T01:34:55.894Z,0
2017-11-23T01:35:55.915Z,0
2017-11-23T01:36:55.923Z,0
2017-11-23T01:37:55.936Z,0
2017-11-23T01:38:55.948Z,0
2017-11-23T01:39:55.702Z,0
2017-11-23T01:40:56.240Z,0
2017-11-23T01:41:55.983Z,0
2017-11-23T01:42:56.266Z,0
2017-11-23T01:43:56.283Z,0
2017-11-23T01:44:56.301Z,0
2017-11-23T01:45:56.038Z,0
2017-11-23T01:46:56.325Z,0
2017-11-23T01:47:56.341Z,0
2017-11-23T01:48:56.070Z,0
2017-11-23T01:49:56.350Z,0
2017-11-23T01:50:56.384Z,0
2017-11-23T01:51:56.134Z,0
2017-11-23T01:52:56.138Z,0
2017-11-23T01:53:56.427Z,0
2017-11-23T01:54:56.445Z,0
2017-11-23T01:55:56.446Z,0
2017-11-23T01:56:56.463Z,0
2017-11-23T01:57:56.478Z,0
2017-11-23T01:58:56.491Z,0
2017-11-23T01:59:56.650Z,0
2017-11-23T02:00:56.503Z,0
2017-11-23T02:01:56.279Z,0
2017-11-23T02:02:56.527Z,0
2017-11-23T02:03:56.557Z,0
2017-11-23T02:04:56.283Z,0
2017-11-23T02:05:56.576Z,0
2017-11-23T02:06:56.584Z,0
2017-11-23T02:07:56.612Z,0
2017-11-23T02:08:56.617Z,0
2017-11-23T02:09:56.354Z,0
2017-11-23T02:10:56.364Z,0
2017-11-23T02:11:56.643Z,0
2017-11-23T02:12:56.660Z,0
2017-11-23T02:13:56.670Z,0
2017-11-23T02:14:56.697Z,0
2017-11-23T02:15:56.422Z,0
2017-11-23T02:16:56.708Z,0
2017-11-23T02:17:56.719Z,0
2017-11-23T02:18:56.734Z,0
2017-11-23T02:19:56.744Z,0
2017-11-23T02:20:56.755Z,0
2017-11-23T02:21:56.780Z,0
2017-11-23T02:22:56.558Z,0
2017-11-23T02:23:56.529Z,0
2017-11-23T02:24:56.539Z,0
2017-11-23T02:25:56.270Z,0
2017-11-23T02:26:57.063Z,0
2017-11-23T02:27:56.983Z,0
2017-11-23T02:28:56.854Z,0
2017-11-23T02:29:56.598Z,0
2017-11-23T02:30:56.913Z,0
2017-11-23T02:31:56.903Z,0
2017-11-23T02:32:56.632Z,0
2017-11-23T02:33:56.647Z,0
2017-11-23T02:34:56.662Z,0
2017-11-23T02:35:56.964Z,0
2017-11-23T02:36:56.708Z,0
2017-11-23T02:37:56.991Z,0
2017-11-23T02:38:56.705Z,0
2017-11-23T02:39:56.724Z,0
2017-11-23T02:40:56.463Z,0
2017-11-23T02:41:56.756Z,0
2017-11-23T02:42:57.068Z,0
2017-11-23T02:43:57.038Z,0
2017-11-23T02:44:57.057Z,0
2017-11-23T02:45:57.061Z,0
2017-11-23T02:46:57.082Z,0
2017-11-23T02:47:57.088Z,0
2017-11-23T02:48:56.858Z,0
2017-11-23T02:49:57.118Z,0
2017-11-23T02:50:57.128Z,0
2017-11-23T02:51:56.604Z,0
2017-11-23T02:52:57.142Z,0
2017-11-23T02:53:57.163Z,0
2017-11-23T02:54:57.180Z,0
2017-11-23T02:55:57.190Z,0
2017-11-23T02:56:57.200Z,0
2017-11-23T02:57:57.220Z,0
2017-11-23T02:58:57.230Z,0
2017-11-23T02:59:57.236Z,0
2017-11-23T03:00:57.258Z,0
2017-11-23T03:01:57.011Z,0
2017-11-23T03:02:56.741Z,0
2017-11-23T03:03:56.764Z,0
2017-11-23T03:04:57.036Z,0
2017-11-23T03:05:57.047Z,0
2017-11-23T03:06:57.046Z,0
2017-11-23T03:07:56.804Z,0
2017-11-23T03:08:57.344Z,0
2017-11-23T03:09:57.358Z,0
2017-11-23T03:10:57.378Z,0
2017-11-23T03:11:57.386Z,0
2017-11-23T03:12:57.123Z,0
2017-11-23T03:13:57.134Z,0
2017-11-23T03:14:57.416Z,0
2017-11-23T03:15:57.431Z,0
2017-11-23T03:16:57.442Z,0
2017-11-23T03:17:57.461Z,0
2017-11-23T03:18:57.471Z,0
2017-11-23T03:19:57.225Z,0
2017-11-23T03:20:56.947Z,0
2017-11-23T03:21:56.965Z,0
2017-11-23T03:22:57.525Z,0
2017-11-23T03:23:57.536Z,0
2017-11-23T03:24:57.541Z,0
2017-11-23T03:25:57.288Z,0
2017-11-23T03:26:57.577Z,0
2017-11-23T03:27:57.312Z,0
2017-11-23T03:28:57.046Z,0
2017-11-23T03:29:57.338Z,0
2017-11-23T03:30:57.078Z,0
2017-11-23T03:31:57.369Z,0
2017-11-23T03:32:57.638Z,0
2017-11-23T03:33:57.662Z,0
2017-11-23T03:34:57.853Z,0
2017-11-23T03:35:57.681Z,0
2017-11-23T03:36:57.709Z,0
2017-11-23T03:37:57.428Z,0
2017-11-23T03:38:57.717Z,0
2017-11-23T03:39:57.748Z,0
2017-11-23T03:40:57.744Z,0
2017-11-23T03:41:57.820Z,0
2017-11-23T03:42:57.766Z,0
2017-11-23T03:43:57.815Z,0
2017-11-23T03:44:57.789Z,0
2017-11-23T03:45:57.803Z,0
2017-11-23T03:46:57.539Z,0
2017-11-23T03:47:57.833Z,0
2017-11-23T03:48:57.839Z,0
2017-11-23T03:49:57.309Z,0
2017-11-23T03:50:57.861Z,0
2017-11-23T03:51:57.602Z,0
2017-11-23T03:52:57.892Z,0
2017-11-23T03:53:57.629Z,0
2017-11-23T03:54:57.641Z,0
2017-11-23T03:55:57.650Z,0
2017-11-23T03:56:57.679Z,0
2017-11-23T03:57:57.954Z,0
2017-11-23T03:58:57.978Z,0
2017-11-23T03:59:57.695Z,0
2017-11-23T04:00:57.438Z,0
2017-11-23T04:01:57.722Z,0
2017-11-23T04:02:57.755Z,0
2017-11-23T04:03:57.750Z,0
2017-11-23T04:04:57.764Z,0
2017-11-23T04:05:58.061Z,0
2017-11-23T04:06:58.057Z,0
2017-11-23T04:07:57.827Z,0
2017-11-23T04:08:58.078Z,0
2017-11-23T04:09:58.094Z,0
2017-11-23T04:10:58.337Z,0
2017-11-23T04:11:57.602Z,0
2017-11-23T04:12:57.947Z,0
2017-11-23T04:13:57.945Z,0
2017-11-23T04:14:57.915Z,0
2017-11-23T04:15:58.168Z,0
2017-11-23T04:16:58.175Z,0
2017-11-23T04:17:57.647Z,0
2017-11-23T04:18:58.339Z,0
2017-11-23T04:19:58.212Z,0
2017-11-23T04:20:58.243Z,0
2017-11-23T04:21:58.243Z,0
2017-11-23T04:22:57.707Z,0
2017-11-23T04:23:57.724Z,0
2017-11-23T04:24:58.291Z,0
2017-11-23T04:25:58.294Z,0
2017-11-23T04:26:58.302Z,0
2017-11-23T04:27:58.035Z,0
2017-11-23T04:28:58.323Z,0
2017-11-23T04:29:58.521Z,0
2017-11-23T04:30:58.213Z,0
2017-11-23T04:31:58.202Z,0
2017-11-23T04:32:58.535Z,0
2017-11-23T04:33:58.441Z,0
2017-11-23T04:34:58.610Z,0
2017-11-23T04:35:58.440Z,0
2017-11-23T04:36:58.448Z,0
2017-11-23T04:37:58.433Z,0
2017-11-23T04:38:58.443Z,0
2017-11-23T04:39:58.185Z,0
2017-11-23T04:40:57.927Z,0
2017-11-23T04:41:58.207Z,0
2017-11-23T04:42:58.496Z,0
2017-11-23T04:43:58.506Z,0
2017-11-23T04:44:58.516Z,0
2017-11-23T04:45:58.532Z,0
2017-11-23T04:46:58.544Z,0
2017-11-23T04:47:58.562Z,0
2017-11-23T04:48:58.431Z,0
2017-11-23T04:49:58.035Z,0
2017-11-23T04:50:58.593Z,0
2017-11-23T04:51:58.602Z,0
2017-11-23T04:52:58.277Z,0
2017-11-23T04:53:58.634Z,0
2017-11-23T04:54:57.826Z,0
2017-11-23T04:55:58.669Z,0
2017-11-23T04:56:58.412Z,0
2017-11-23T04:57:58.682Z,0
2017-11-23T04:58:58.693Z,0
2017-11-23T04:59:58.451Z,0
2017-11-23T05:00:58.715Z,0
2017-11-23T05:01:58.453Z,0
2017-11-23T05:02:58.485Z,0
2017-11-23T05:03:58.569Z,0
2017-11-23T05:04:58.508Z,0
2017-11-23T05:05:58.271Z,0
2017-11-23T05:06:58.810Z,0
2017-11-23T05:07:58.801Z,0
2017-11-23T05:08:58.548Z,0
2017-11-23T05:09:58.824Z,0
2017-11-23T05:10:58.863Z,0
2017-11-23T05:11:58.574Z,0
2017-11-23T05:12:58.859Z,0
2017-11-23T05:13:58.608Z,0
2017-11-23T05:14:58.613Z,0
2017-11-23T05:15:58.624Z,0
2017-11-23T05:16:58.647Z,0
2017-11-23T05:17:58.917Z,0
2017-11-23T05:18:58.926Z,0
2017-11-23T05:19:58.999Z,0
2017-11-23T05:20:58.412Z,0
2017-11-23T05:21:58.432Z,0
2017-11-23T05:22:58.983Z,0
2017-11-23T05:23:59.268Z,0
2017-11-23T05:24:59.000Z,0
2017-11-23T05:25:59.020Z,0
2017-11-23T05:26:59.024Z,0
2017-11-23T05:27:58.780Z,0
2017-11-23T05:28:58.515Z,0
2017-11-23T05:29:58.790Z,0
2017-11-23T05:30:59.086Z,0
2017-11-23T05:31:59.085Z,0
2017-11-23T05:32:58.833Z,0
2017-11-23T05:33:58.852Z,0
2017-11-23T05:34:59.126Z,0
2017-11-23T05:35:59.146Z,0
2017-11-23T05:36:59.189Z,0
2017-11-23T05:37:59.178Z,0
2017-11-23T05:38:58.779Z,0
2017-11-23T05:39:59.198Z,0
2017-11-23T05:40:59.212Z,0
2017-11-23T05:41:59.215Z,0
2017-11-23T05:42:59.398Z,0
2017-11-23T05:43:58.695Z,0
2017-11-23T05:44:59.019Z,0
2017-11-23T05:45:59.272Z,0
2017-11-23T05:46:59.269Z,0
2017-11-23T05:47:59.288Z,0
2017-11-23T05:48:58.754Z,0
2017-11-23T05:49:59.319Z,0
2017-11-23T05:50:59.054Z,0
2017-11-23T05:51:59.071Z,0
2017-11-23T05:52:59.360Z,0
2017-11-23T05:53:59.355Z,0
2017-11-23T05:54:59.368Z,0
2017-11-23T05:55:59.386Z,0
2017-11-23T05:56:59.391Z,0
2017-11-23T05:57:59.403Z,0
2017-11-23T05:58:58.894Z,0
2017-11-23T05:59:59.160Z,0
2017-11-23T06:00:59.458Z,0
2017-11-23T06:01:59.458Z,0
2017-11-23T06:02:59.465Z,0
2017-11-23T06:03:59.483Z,0
2017-11-23T06:04:59.500Z,0
2017-11-23T06:05:59.503Z,0
2017-11-23T06:06:59.276Z,0
2017-11-23T06:07:59.531Z,0
2017-11-23T06:08:59.267Z,0
2017-11-23T06:09:59.274Z,0
2017-11-23T06:10:59.289Z,0
2017-11-23T06:11:59.576Z,0
2017-11-23T06:12:59.587Z,0
2017-11-23T06:13:59.326Z,0
2017-11-23T06:14:59.612Z,0
2017-11-23T06:15:59.347Z,0
2017-11-23T06:16:59.651Z,0
2017-11-23T06:17:59.385Z,0
2017-11-23T06:18:59.663Z,0
2017-11-23T06:19:59.399Z,0
2017-11-23T06:20:59.414Z,4
2017-11-23T06:21:59.442Z,4
2017-11-23T06:22:59.431Z,0
2017-11-23T06:23:59.446Z,0
2017-11-23T06:24:59.473Z,0
2017-11-23T06:25:59.744Z,0
2017-11-23T06:26:59.489Z,4
2017-11-23T06:27:59.770Z,4
2017-11-23T06:28:59.780Z,8
2017-11-23T06:29:59.522Z,4
2017-11-23T06:30:59.542Z,8
2017-11-23T06:31:59.275Z,8
2017-11-23T06:32:59.829Z,8
2017-11-23T06:33:59.569Z,8
2017-11-23T06:34:59.890Z,12
2017-11-23T06:35:59.596Z,12
2017-11-23T06:36:59.609Z,12
2017-11-23T06:37:59.900Z,16
2017-11-23T06:38:59.632Z,16
2017-11-23T06:39:59.385Z,20
2017-11-23T06:40:59.389Z,20
2017-11-23T06:41:59.660Z,24
2017-11-23T06:42:59.946Z,28
2017-11-23T06:43:59.695Z,28
2017-11-23T06:44:59.975Z,32
2017-11-23T06:45:59.723Z,36
2017-11-23T06:46:59.723Z,36
2017-11-23T06:48:00.006Z,44
2017-11-23T06:49:00.047Z,44
2017-11-23T06:49:59.762Z,48
2017-11-23T06:51:00.070Z,52
2017-11-23T06:52:00.054Z,56
2017-11-23T06:52:59.526Z,60
2017-11-23T06:54:00.100Z,64
2017-11-23T06:55:00.102Z,64
2017-11-23T06:56:00.110Z,68
2017-11-23T06:56:59.845Z,72
2017-11-23T06:57:59.864Z,76
2017-11-23T06:59:00.151Z,76
2017-11-23T06:59:59.879Z,80
2017-11-23T07:01:00.179Z,84
2017-11-23T07:02:00.050Z,88
2017-11-23T07:03:00.214Z,96
2017-11-23T07:04:00.260Z,108
2017-11-23T07:04:59.939Z,120
2017-11-23T07:06:00.226Z,132
2017-11-23T07:07:00.240Z,136
2017-11-23T07:07:59.986Z,136
2017-11-23T07:09:00.273Z,136
2017-11-23T07:10:00.282Z,140
2017-11-23T07:11:00.026Z,144
2017-11-23T07:12:00.319Z,152
2017-11-23T07:13:00.322Z,160
2017-11-23T07:14:00.324Z,168
2017-11-23T07:14:59.794Z,172
2017-11-23T07:16:00.086Z,176
2017-11-23T07:17:00.365Z,176
2017-11-23T07:18:00.102Z,176
2017-11-23T07:19:00.386Z,176
2017-11-23T07:20:00.407Z,184
2017-11-23T07:21:00.418Z,188
2017-11-23T07:22:00.427Z,196
2017-11-23T07:23:00.441Z,196
2017-11-23T07:24:00.445Z,204
2017-11-23T07:25:00.462Z,212
2017-11-23T07:26:00.472Z,224
2017-11-23T07:27:00.484Z,232
2017-11-23T07:28:00.230Z,240
2017-11-23T07:29:00.539Z,252
2017-11-23T07:29:59.983Z,256
2017-11-23T07:31:00.262Z,264
2017-11-23T07:32:00.545Z,264
2017-11-23T07:33:00.554Z,268
2017-11-23T07:34:00.046Z,268
2017-11-23T07:35:00.587Z,272
2017-11-23T07:36:00.596Z,272
2017-11-23T07:37:00.333Z,268
2017-11-23T07:38:00.353Z,260
2017-11-23T07:39:00.389Z,260
2017-11-23T07:40:00.370Z,260
2017-11-23T07:41:00.106Z,264
2017-11-23T07:42:00.672Z,272
2017-11-23T07:43:00.159Z,276
2017-11-23T07:44:00.443Z,276
2017-11-23T07:45:00.713Z,276
2017-11-23T07:46:00.717Z,280
2017-11-23T07:47:00.731Z,284
2017-11-23T07:48:00.195Z,288
2017-11-23T07:49:00.755Z,288
2017-11-23T07:50:00.772Z,288
2017-11-23T07:51:00.506Z,284
2017-11-23T07:52:00.812Z,292
2017-11-23T07:53:00.259Z,296
2017-11-23T07:54:00.543Z,304
2017-11-23T07:55:00.821Z,312
2017-11-23T07:56:00.576Z,324
2017-11-23T07:57:00.853Z,340
2017-11-23T07:58:00.872Z,352
2017-11-23T07:59:00.877Z,372
2017-11-23T08:00:00.884Z,388
2017-11-23T08:01:00.924Z,396
2017-11-23T08:02:00.927Z,396
2017-11-23T08:03:00.383Z,400
2017-11-23T08:04:00.955Z,400
2017-11-23T08:05:00.679Z,396
2017-11-23T08:06:00.960Z,380
2017-11-23T08:07:00.702Z,380
2017-11-23T08:08:00.729Z,376
2017-11-23T08:09:00.739Z,372
2017-11-23T08:10:01.029Z,368
2017-11-23T08:11:00.492Z,360
2017-11-23T08:12:01.050Z,364
2017-11-23T08:13:00.505Z,372
2017-11-23T08:14:01.065Z,372
2017-11-23T08:15:00.809Z,368
2017-11-23T08:16:00.541Z,360
2017-11-23T08:17:01.093Z,368
2017-11-23T08:18:00.847Z,384
2017-11-23T08:19:01.128Z,396
2017-11-23T08:20:01.143Z,400
2017-11-23T08:21:01.152Z,412
2017-11-23T08:22:00.916Z,424
2017-11-23T08:23:00.901Z,428
2017-11-23T08:24:01.199Z,444
2017-11-23T08:25:01.200Z,460
2017-11-23T08:26:00.669Z,468
2017-11-23T08:27:01.227Z,480
2017-11-23T08:28:00.962Z,492
2017-11-23T08:29:01.251Z,500
2017-11-23T08:30:00.993Z,512
2017-11-23T08:31:01.282Z,524
2017-11-23T08:32:00.761Z,536
2017-11-23T08:33:01.300Z,540
2017-11-23T08:34:01.335Z,532
2017-11-23T08:35:01.327Z,540
2017-11-23T08:36:01.337Z,536
2017-11-23T08:37:01.362Z,512
2017-11-23T08:38:01.104Z,496
2017-11-23T08:39:01.099Z,500
2017-11-23T08:40:01.397Z,528
2017-11-23T08:41:01.410Z,564
2017-11-23T08:42:01.417Z,592
2017-11-23T08:43:01.430Z,620
2017-11-23T08:44:01.206Z,632
2017-11-23T08:45:01.458Z,644
2017-11-23T08:46:01.473Z,668
2017-11-23T08:47:01.219Z,684
2017-11-23T08:48:01.498Z,696
2017-11-23T08:49:01.515Z,700
2017-11-23T08:50:01.532Z,704
2017-11-23T08:51:01.539Z,716
2017-11-23T08:52:00.997Z,724
2017-11-23T08:53:01.286Z,728
2017-11-23T08:54:01.571Z,728
2017-11-23T08:55:01.592Z,728
2017-11-23T08:56:01.590Z,732
2017-11-23T08:57:01.340Z,744
2017-11-23T08:58:01.623Z,764
2017-11-23T08:59:01.375Z,780
2017-11-23T09:00:01.648Z,788
2017-11-23T09:01:01.393Z,788
2017-11-23T09:02:01.682Z,780
2017-11-23T09:03:01.417Z,780
2017-11-23T09:04:01.695Z,788
2017-11-23T09:05:01.437Z,792
2017-11-23T09:06:01.725Z,792
2017-11-23T09:07:01.460Z,808
2017-11-23T09:08:01.486Z,808
2017-11-23T09:09:01.503Z,808
2017-11-23T09:10:01.776Z,784
2017-11-23T09:11:01.802Z,784
2017-11-23T09:12:01.798Z,792
2017-11-23T09:13:01.552Z,792
2017-11-23T09:14:01.554Z,796
2017-11-23T09:15:01.840Z,796
2017-11-23T09:16:01.861Z,780
2017-11-23T09:17:01.882Z,768
2017-11-23T09:18:01.364Z,764
2017-11-23T09:19:01.642Z,776
2017-11-23T09:20:01.906Z,788
2017-11-23T09:21:01.928Z,776
2017-11-23T09:22:01.397Z,756
2017-11-23T09:23:01.684Z,752
2017-11-23T09:24:01.981Z,768
2017-11-23T09:25:01.978Z,776
2017-11-23T09:26:02.021Z,764
2017-11-23T09:27:01.460Z,756
2017-11-23T09:28:01.735Z,756
2017-11-23T09:29:02.044Z,760
2017-11-23T09:30:02.047Z,776
2017-11-23T09:31:02.055Z,804
2017-11-23T09:32:02.068Z,828
2017-11-23T09:33:01.812Z,848
2017-11-23T09:34:02.091Z,872
2017-11-23T09:35:02.120Z,880
2017-11-23T09:36:02.121Z,900
2017-11-23T09:37:01.871Z,920
2017-11-23T09:38:02.143Z,928
2017-11-23T09:39:02.158Z,928
2017-11-23T09:40:02.181Z,928
2017-11-23T09:41:02.203Z,932
2017-11-23T09:42:02.194Z,932
2017-11-23T09:43:02.225Z,940
2017-11-23T09:44:02.232Z,956
2017-11-23T09:45:01.696Z,1000
2017-11-23T09:46:01.715Z,1012
2017-11-23T09:47:02.270Z,972
2017-11-23T09:48:02.293Z,952
2017-11-23T09:49:02.293Z,960
2017-11-23T09:50:02.318Z,1008
2017-11-23T09:51:02.325Z,996
2017-11-23T09:52:02.062Z,972
2017-11-23T09:53:02.089Z,952
2017-11-23T09:54:02.362Z,964
2017-11-23T09:55:02.131Z,964
2017-11-23T09:56:02.128Z,984
2017-11-23T09:57:02.411Z,1000
2017-11-23T09:58:02.146Z,980
2017-11-23T09:59:02.444Z,948
2017-11-23T10:00:02.173Z,944
2017-11-23T10:01:02.193Z,924
2017-11-23T10:02:02.487Z,912
2017-11-23T10:03:02.485Z,932
2017-11-23T10:04:02.236Z,896
2017-11-23T10:05:01.967Z,908
2017-11-23T10:06:02.526Z,948
2017-11-23T10:07:02.270Z,948
2017-11-23T10:08:02.285Z,940
2017-11-23T10:09:02.569Z,944
2017-11-23T10:10:02.578Z,988
2017-11-23T10:11:02.600Z,1044
2017-11-23T10:12:02.629Z,1100
2017-11-23T10:13:02.354Z,1132
2017-11-23T10:14:02.647Z,1164
2017-11-23T10:15:02.680Z,1160
2017-11-23T10:16:02.685Z,1108
2017-11-23T10:17:02.685Z,1092
2017-11-23T10:18:02.424Z,1104
2017-11-23T10:19:02.442Z,1100
2017-11-23T10:20:02.177Z,1112
2017-11-23T10:21:02.469Z,1136
2017-11-23T10:22:02.766Z,1148
2017-11-23T10:23:02.764Z,1156
2017-11-23T10:24:02.515Z,1160
2017-11-23T10:25:02.790Z,1124
2017-11-23T10:26:02.809Z,1084
2017-11-23T10:27:02.822Z,1048
2017-11-23T10:28:02.845Z,1024
2017-11-23T10:29:02.852Z,1056
2017-11-23T10:30:02.601Z,1104
2017-11-23T10:31:02.610Z,1104
2017-11-23T10:32:02.625Z,1064
2017-11-23T10:33:02.909Z,1072
2017-11-23T10:34:02.923Z,1132
2017-11-23T10:35:02.942Z,1180
2017-11-23T10:36:02.691Z,1204
2017-11-23T10:37:02.692Z,1204
2017-11-23T10:38:02.994Z,1208
2017-11-23T10:39:02.449Z,1136
2017-11-23T10:40:02.733Z,1100
2017-11-23T10:41:02.750Z,1052
2017-11-23T10:42:03.059Z,1020
2017-11-23T10:43:02.774Z,1044
2017-11-23T10:44:02.802Z,1044
2017-11-23T10:45:03.083Z,1012
2017-11-23T10:46:02.548Z,980
2017-11-23T10:47:02.841Z,1000
2017-11-23T10:48:02.876Z,1036
2017-11-23T10:49:02.862Z,1048
2017-11-23T10:50:03.172Z,1068
2017-11-23T10:51:03.170Z,1088
2017-11-23T10:52:02.643Z,1108
2017-11-23T10:53:03.201Z,1144
2017-11-23T10:54:02.935Z,1148
2017-11-23T10:55:02.948Z,1124
2017-11-23T10:56:03.251Z,1132
2017-11-23T10:57:02.999Z,1196
2017-11-23T10:58:03.034Z,1260
2017-11-23T10:59:03.290Z,1224
2017-11-23T11:00:03.310Z,1244
2017-11-23T11:01:03.042Z,1268
2017-11-23T11:02:03.333Z,1300
2017-11-23T11:03:03.087Z,1304
2017-11-23T11:04:03.109Z,1236
2017-11-23T11:05:03.371Z,1120
2017-11-23T11:06:03.407Z,1084
2017-11-23T11:07:02.853Z,1108
2017-11-23T11:08:03.423Z,1140
2017-11-23T11:09:03.167Z,1144
2017-11-23T11:10:03.444Z,1188
2017-11-23T11:11:03.187Z,1248
2017-11-23T11:12:02.934Z,1180
2017-11-23T11:13:03.223Z,1128
2017-11-23T11:14:02.982Z,1096
2017-11-23T11:15:03.516Z,1148
2017-11-23T11:16:03.263Z,1204
2017-11-23T11:17:03.274Z,1196
2017-11-23T11:18:03.296Z,1128
2017-11-23T11:19:03.588Z,1076
2017-11-23T11:20:03.336Z,1104
2017-11-23T11:21:03.608Z,1192
2017-11-23T11:22:03.630Z,1280
2017-11-23T11:23:03.364Z,1264
2017-11-23T11:24:03.377Z,1172
2017-11-23T11:25:03.692Z,1160
2017-11-23T11:26:03.738Z,1120
2017-11-23T11:27:03.425Z,1040
2017-11-23T11:28:03.484Z,996
2017-11-23T11:29:03.459Z,1016
2017-11-23T11:30:03.491Z,1076
2017-11-23T11:31:03.490Z,1100
2017-11-23T11:32:03.782Z,1092
2017-11-23T11:33:03.530Z,1092
2017-11-23T11:34:03.800Z,1096
2017-11-23T11:35:03.559Z,1108
2017-11-23T11:36:03.841Z,1108
2017-11-23T11:37:03.576Z,1092
2017-11-23T11:38:03.868Z,1060
2017-11-23T11:39:03.621Z,1048
2017-11-23T11:40:03.901Z,1028
2017-11-23T11:41:03.906Z,1008
2017-11-23T11:42:03.692Z,1016
2017-11-23T11:43:03.972Z,1012
2017-11-23T11:44:03.972Z,984
2017-11-23T11:45:03.696Z,1020
2017-11-23T11:46:03.987Z,1064
2017-11-23T11:47:03.730Z,1040
2017-11-23T11:48:04.024Z,1028
2017-11-23T11:49:03.491Z,1004
2017-11-23T11:50:04.052Z,1008
2017-11-23T11:51:03.798Z,1012
2017-11-23T11:52:03.536Z,968
2017-11-23T11:53:03.827Z,856
2017-11-23T11:54:04.123Z,828
2017-11-23T11:55:03.583Z,848
2017-11-23T11:56:04.145Z,872
2017-11-23T11:57:03.885Z,808
2017-11-23T11:58:04.182Z,772
2017-11-23T11:59:03.919Z,788
2017-11-23T12:00:04.225Z,840
2017-11-23T12:01:04.248Z,920
2017-11-23T12:02:04.232Z,980
2017-11-23T12:03:04.254Z,1052
2017-11-23T12:04:04.269Z,1004
2017-11-23T12:05:04.285Z,968
2017-11-23T12:06:04.027Z,996
2017-11-23T12:07:04.045Z,1032
2017-11-23T12:08:04.063Z,1032
2017-11-23T12:09:04.083Z,1012
2017-11-23T12:10:04.380Z,1016
2017-11-23T12:11:04.113Z,1020
2017-11-23T12:12:04.392Z,1016
2017-11-23T12:13:04.417Z,1004
2017-11-23T12:14:04.445Z,996
2017-11-23T12:15:04.439Z,984
2017-11-23T12:16:04.495Z,980
2017-11-23T12:17:03.928Z,956
2017-11-23T12:18:04.222Z,952
2017-11-23T12:19:04.501Z,984
2017-11-23T12:20:04.256Z,976
2017-11-23T12:21:04.270Z,944
2017-11-23T12:22:04.557Z,896
2017-11-23T12:23:04.300Z,856
2017-11-23T12:24:04.323Z,824
2017-11-23T12:25:04.353Z,832
2017-11-23T12:26:04.342Z,824
2017-11-23T12:27:04.645Z,836
2017-11-23T12:28:04.641Z,812
2017-11-23T12:29:04.404Z,816
2017-11-23T12:30:04.134Z,816
2017-11-23T12:31:04.689Z,836
2017-11-23T12:32:04.452Z,848
2017-11-23T12:33:04.452Z,852
2017-11-23T12:34:04.741Z,900
2017-11-23T12:35:04.758Z,984
2017-11-23T12:36:04.783Z,1096
2017-11-23T12:37:04.514Z,1172
2017-11-23T12:38:04.586Z,1100
2017-11-23T12:39:04.823Z,1008
2017-11-23T12:40:04.843Z,936
2017-11-23T12:41:04.857Z,900
2017-11-23T12:42:04.871Z,892
2017-11-23T12:43:04.613Z,900
2017-11-23T12:44:04.909Z,944
2017-11-23T12:45:04.931Z,996
2017-11-23T12:46:04.976Z,1008
2017-11-23T12:47:04.407Z,964
2017-11-23T12:48:04.970Z,892
2017-11-23T12:49:04.710Z,840
2017-11-23T12:50:05.014Z,884
2017-11-23T12:51:05.025Z,984
2017-11-23T12:52:05.040Z,1072
2017-11-23T12:53:04.803Z,1124
2017-11-23T12:54:04.534Z,1164
2017-11-23T12:55:05.080Z,1180
2017-11-23T12:56:05.119Z,1168
2017-11-23T12:57:04.845Z,1032
2017-11-23T12:58:05.138Z,772
2017-11-23T12:59:04.877Z,620
2017-11-23T13:00:05.169Z,656
2017-11-23T13:01:05.188Z,792
2017-11-23T13:02:05.207Z,904
2017-11-23T13:03:05.223Z,984
2017-11-23T13:04:05.235Z,980
2017-11-23T13:05:04.970Z,944
2017-11-23T13:06:04.992Z,856
2017-11-23T13:07:05.281Z,788
2017-11-23T13:08:05.301Z,748
2017-11-23T13:09:05.309Z,664
2017-11-23T13:10:05.351Z,620
2017-11-23T13:11:05.074Z,668
2017-11-23T13:12:05.095Z,708
2017-11-23T13:13:05.112Z,660
2017-11-23T13:14:05.392Z,676
2017-11-23T13:15:05.414Z,704
2017-11-23T13:16:05.156Z,664
2017-11-23T13:17:05.162Z,648
2017-11-23T13:18:05.465Z,664
2017-11-23T13:19:05.203Z,724
2017-11-23T13:20:05.230Z,824
2017-11-23T13:21:05.236Z,888
2017-11-23T13:22:05.259Z,880
2017-11-23T13:23:05.554Z,860
2017-11-23T13:24:05.295Z,832
2017-11-23T13:25:05.574Z,728
2017-11-23T13:26:05.335Z,640
2017-11-23T13:27:05.613Z,616
2017-11-23T13:28:05.352Z,588
2017-11-23T13:29:05.401Z,584
2017-11-23T13:30:05.708Z,624
2017-11-23T13:31:05.400Z,728
2017-11-23T13:32:05.159Z,840
2017-11-23T13:33:05.717Z,940
2017-11-23T13:34:05.726Z,996
2017-11-23T13:35:05.197Z,976
2017-11-23T13:36:05.502Z,900
2017-11-23T13:37:05.498Z,812
2017-11-23T13:38:05.245Z,696
2017-11-23T13:39:05.534Z,568
2017-11-23T13:40:05.571Z,440
2017-11-23T13:41:05.569Z,324
2017-11-23T13:42:05.608Z,292
2017-11-23T13:43:05.988Z,276
2017-11-23T13:44:05.633Z,264
2017-11-23T13:45:05.926Z,256
2017-11-23T13:46:05.936Z,260
2017-11-23T13:47:05.936Z,256
2017-11-23T13:48:05.439Z,256
2017-11-23T13:49:05.972Z,252
2017-11-23T13:50:05.448Z,252
2017-11-23T13:51:06.002Z,252
2017-11-23T13:52:05.805Z,248
2017-11-23T13:53:05.774Z,248
2017-11-23T13:54:05.813Z,244
2017-11-23T13:55:05.807Z,240
2017-11-23T13:56:06.103Z,240
2017-11-23T13:57:05.837Z,236
2017-11-23T13:58:06.136Z,236
2017-11-23T13:59:05.875Z,240
2017-11-23T14:00:06.171Z,236
2017-11-23T14:01:05.915Z,240
2017-11-23T14:02:05.926Z,236
2017-11-23T14:03:06.205Z,236
2017-11-23T14:04:05.960Z,232
2017-11-23T14:05:06.251Z,228
2017-11-23T14:06:05.983Z,224
2017-11-23T14:07:06.005Z,220
2017-11-23T14:08:05.759Z,220
2017-11-23T14:09:06.327Z,216
2017-11-23T14:10:06.363Z,212
2017-11-23T14:11:06.364Z,212